sensor_id;sensor_type;location;lat;lon;timestamp;pressure;altitude;pressure_sealevel;temperature;humidity
47738;BME280;33502;47.182;27.506;2023-03-04T00:01:15;100313.00;;;-0.90;100.00
47738;BME280;33502;47.182;27.506;2023-03-04T00:03:41;100308.63;;;-0.97;100.00
47738;BME280;33502;47.182;27.506;2023-03-04T00:06:07;100307.75;;;-1.01;100.00
47738;BME280;33502;47.182;27.506;2023-03-04T00:08:33;100306.00;;;-1.06;100.00
47738;BME280;33502;47.182;27.506;2023-03-04T00:10:59;100299.91;;;-1.10;100.00
47738;BME280;33502;47.182;27.506;2023-03-04T00:13:25;100296.41;;;-1.18;100.00
47738;BME280;33502;47.182;27.506;2023-03-04T00:15:51;100300.69;;;-1.26;100.00
47738;BME280;33502;47.182;27.506;2023-03-04T00:18:18;100300.66;;;-1.35;100.00
47738;BME280;33502;47.182;27.506;2023-03-04T00:20:45;100290.22;;;-1.40;100.00
47738;BME280;33502;47.182;27.506;2023-03-04T00:23:12;100294.53;;;-1.45;100.00
47738;BME280;33502;47.182;27.506;2023-03-04T00:25:38;100295.38;;;-1.52;100.00
47738;BME280;33502;47.182;27.506;2023-03-04T00:28:03;100284.94;;;-1.57;100.00
47738;BME280;33502;47.182;27.506;2023-03-04T00:30:30;100281.50;;;-1.56;100.00
47738;BME280;33502;47.182;27.506;2023-03-04T00:32:56;100278.88;;;-1.62;100.00
47738;BME280;33502;47.182;27.506;2023-03-04T00:35:22;100283.13;;;-1.72;100.00
47738;BME280;33502;47.182;27.506;2023-03-04T00:37:48;100276.13;;;-1.82;100.00
47738;BME280;33502;47.182;27.506;2023-03-04T00:40:15;100274.34;;;-1.91;100.00
47738;BME280;33502;47.182;27.506;2023-03-04T00:42:41;100273.41;;;-1.99;100.00
47738;BME280;33502;47.182;27.506;2023-03-04T00:45:07;100270.84;;;-1.96;100.00
47738;BME280;33502;47.182;27.506;2023-03-04T00:47:33;100268.25;;;-1.96;100.00
47738;BME280;33502;47.182;27.506;2023-03-04T00:49:59;100263.88;;;-2.02;100.00
47738;BME280;33502;47.182;27.506;2023-03-04T00:52:26;100262.94;;;-2.13;100.00
47738;BME280;33502;47.182;27.506;2023-03-04T00:54:51;100261.94;;;-2.26;100.00
47738;BME280;33502;47.182;27.506;2023-03-04T00:57:17;100252.38;;;-2.36;100.00
47738;BME280;33502;47.182;27.506;2023-03-04T00:59:43;100244.53;;;-2.44;100.00
47738;BME280;33502;47.182;27.506;2023-03-04T01:02:09;100248.75;;;-2.53;100.00
47738;BME280;33502;47.182;27.506;2023-03-04T01:04:36;100249.53;;;-2.62;100.00
47738;BME280;33502;47.182;27.506;2023-03-04T01:07:02;100249.44;;;-2.73;100.00
47738;BME280;33502;47.182;27.506;2023-03-04T01:09:27;100245.94;;;-2.78;100.00
47738;BME280;33502;47.182;27.506;2023-03-04T01:11:54;100242.47;;;-2.77;100.00
47738;BME280;33502;47.182;27.506;2023-03-04T01:14:20;100245.97;;;-2.72;100.00
47738;BME280;33502;47.182;27.506;2023-03-04T01:16:45;100245.97;;;-2.72;100.00
47738;BME280;33502;47.182;27.506;2023-03-04T01:19:11;100244.25;;;-2.74;100.00
47738;BME280;33502;47.182;27.506;2023-03-04T01:21:37;100239.88;;;-2.77;100.00
47738;BME280;33502;47.182;27.506;2023-03-04T01:24:03;100239.91;;;-2.76;100.00
47738;BME280;33502;47.182;27.506;2023-03-04T01:26:29;100230.41;;;-2.73;100.00
47738;BME280;33502;47.182;27.506;2023-03-04T01:28:54;100226.19;;;-2.65;100.00
47738;BME280;33502;47.182;27.506;2023-03-04T01:31:20;100225.34;;;-2.63;100.00
47738;BME280;33502;47.182;27.506;2023-03-04T01:33:46;100226.19;;;-2.62;100.00
47738;BME280;33502;47.182;27.506;2023-03-04T01:36:12;100224.47;;;-2.65;100.00
47738;BME280;33502;47.182;27.506;2023-03-04T01:38:37;100214.91;;;-2.70;100.00
47738;BME280;33502;47.182;27.506;2023-03-04T01:41:03;100219.19;;;-2.74;100.00
47738;BME280;33502;47.182;27.506;2023-03-04T01:43:30;100207.91;;;-2.81;100.00
47738;BME280;33502;47.182;27.506;2023-03-04T01:45:57;100209.50;;;-2.90;100.00
47738;BME280;33502;47.182;27.506;2023-03-04T01:48:36;100212.03;;;-2.97;100.00
47738;BME280;33502;47.182;27.506;2023-03-04T01:51:09;100211.16;;;-3.02;100.00
47738;BME280;33502;47.182;27.506;2023-03-04T01:53:36;100207.66;;;-3.04;100.00
47738;BME280;33502;47.182;27.506;2023-03-04T01:56:28;100198.97;;;-3.06;100.00
47738;BME280;33502;47.182;27.506;2023-03-04T02:01:50;100204.91;;;-3.18;100.00
47738;BME280;33502;47.182;27.506;2023-03-04T02:04:17;100196.25;;;-3.20;100.00
47738;BME280;33502;47.182;27.506;2023-03-04T02:06:45;100197.13;;;-3.19;100.00
47738;BME280;33502;47.182;27.506;2023-03-04T02:09:11;100183.31;;;-3.20;100.00
47738;BME280;33502;47.182;27.506;2023-03-04T02:11:37;100185.91;;;-3.18;100.00
47738;BME280;33502;47.182;27.506;2023-03-04T02:14:04;100183.31;;;-3.18;100.00
47738;BME280;33502;47.182;27.506;2023-03-04T02:16:31;100179.88;;;-3.19;100.00
47738;BME280;33502;47.182;27.506;2023-03-04T02:18:57;100180.75;;;-3.18;100.00
47738;BME280;33502;47.182;27.506;2023-03-04T02:21:29;100180.72;;;-3.20;100.00
47738;BME280;33502;47.182;27.506;2023-03-04T02:24:14;100183.38;;;-3.15;100.00
47738;BME280;33502;47.182;27.506;2023-03-04T02:26:43;100178.16;;;-3.17;100.00
47738;BME280;33502;47.182;27.506;2023-03-04T02:29:13;100176.44;;;-3.16;100.00
47738;BME280;33502;47.182;27.506;2023-03-04T02:31:44;100175.59;;;-3.17;100.00
47738;BME280;33502;47.182;27.506;2023-03-04T02:36:47;100176.47;;;-3.15;100.00
47738;BME280;33502;47.182;27.506;2023-03-04T02:39:24;100169.56;;;-3.14;100.00
47738;BME280;33502;47.182;27.506;2023-03-04T02:41:53;100167.81;;;-3.17;100.00
47738;BME280;33502;47.182;27.506;2023-03-04T02:44:32;100154.84;;;-3.18;100.00
47738;BME280;33502;47.182;27.506;2023-03-04T02:47:03;100147.91;;;-3.19;100.00
47738;BME280;33502;47.182;27.506;2023-03-04T02:49:31;100145.31;;;-3.19;100.00
47738;BME280;33502;47.182;27.506;2023-03-04T02:54:31;100132.38;;;-3.21;100.00
47738;BME280;33502;47.182;27.506;2023-03-04T02:57:02;100132.38;;;-3.18;100.00
47738;BME280;33502;47.182;27.506;2023-03-04T02:59:34;100126.41;;;-3.15;100.00
47738;BME280;33502;47.182;27.506;2023-03-04T03:02:00;100120.38;;;-3.11;100.00
47738;BME280;33502;47.182;27.506;2023-03-04T03:04:26;100125.59;;;-3.09;100.00
47738;BME280;33502;47.182;27.506;2023-03-04T03:06:53;100123.84;;;-3.10;100.00
47738;BME280;33502;47.182;27.506;2023-03-04T03:09:19;100116.03;;;-3.12;100.00
47738;BME280;33502;47.182;27.506;2023-03-04T03:11:46;100114.38;;;-3.07;100.00
47738;BME280;33502;47.182;27.506;2023-03-04T03:14:12;100110.09;;;-3.00;100.00
47738;BME280;33502;47.182;27.506;2023-03-04T03:16:37;100103.22;;;-3.00;100.00
47738;BME280;33502;47.182;27.506;2023-03-04T03:19:04;100098.88;;;-3.01;100.00
47738;BME280;33502;47.182;27.506;2023-03-04T03:21:30;100103.19;;;-3.01;100.00
47738;BME280;33502;47.182;27.506;2023-03-04T03:23:56;100097.13;;;-3.03;100.00
47738;BME280;33502;47.182;27.506;2023-03-04T03:26:22;100090.22;;;-3.03;100.00
47738;BME280;33502;47.182;27.506;2023-03-04T03:28:47;100088.50;;;-3.01;100.00
47738;BME280;33502;47.182;27.506;2023-03-04T03:31:13;100086.00;;;-2.91;100.00
47738;BME280;33502;47.182;27.506;2023-03-04T03:33:39;100075.69;;;-2.84;100.00
47738;BME280;33502;47.182;27.506;2023-03-04T03:36:05;100073.16;;;-2.76;100.00
47738;BME280;33502;47.182;27.506;2023-03-04T03:38:31;100076.66;;;-2.71;100.00
47738;BME280;33502;47.182;27.506;2023-03-04T03:40:57;100078.38;;;-2.70;100.00
47738;BME280;33502;47.182;27.506;2023-03-04T03:43:23;100068.91;;;-2.69;100.00
47738;BME280;33502;47.182;27.506;2023-03-04T03:45:49;100069.78;;;-2.69;100.00
47738;BME280;33502;47.182;27.506;2023-03-04T03:48:16;100072.31;;;-2.72;100.00
47738;BME280;33502;47.182;27.506;2023-03-04T03:50:43;100071.44;;;-2.76;100.00
47738;BME280;33502;47.182;27.506;2023-03-04T03:53:08;100076.63;;;-2.79;100.00
47738;BME280;33502;47.182;27.506;2023-03-04T03:55:34;100077.41;;;-2.86;100.00
47738;BME280;33502;47.182;27.506;2023-03-04T03:58:00;100074.72;;;-2.97;100.00
47738;BME280;33502;47.182;27.506;2023-03-04T04:00:26;100074.63;;;-3.09;100.00
47738;BME280;33502;47.182;27.506;2023-03-04T04:02:53;100067.63;;;-3.19;100.00
47738;BME280;33502;47.182;27.506;2023-03-04T04:05:20;100068.41;;;-3.28;100.00
47738;BME280;33502;47.182;27.506;2023-03-04T04:07:46;100073.53;;;-3.36;100.00
47738;BME280;33502;47.182;27.506;2023-03-04T04:10:11;100071.75;;;-3.41;100.00
47738;BME280;33502;47.182;27.506;2023-03-04T04:12:38;100074.31;;;-3.43;100.00
47738;BME280;33502;47.182;27.506;2023-03-04T04:15:04;100073.44;;;-3.45;100.00
47738;BME280;33502;47.182;27.506;2023-03-04T04:17:30;100070.88;;;-3.40;100.00
47738;BME280;33502;47.182;27.506;2023-03-04T04:19:56;100064.97;;;-3.27;100.00
47738;BME280;33502;47.182;27.506;2023-03-04T04:22:22;100062.47;;;-3.18;100.00
47738;BME280;33502;47.182;27.506;2023-03-04T04:24:48;100061.69;;;-3.09;100.00
47738;BME280;33502;47.182;27.506;2023-03-04T04:27:14;100061.72;;;-3.07;100.00
47738;BME280;33502;47.182;27.506;2023-03-04T04:29:40;100055.72;;;-3.02;100.00
47738;BME280;33502;47.182;27.506;2023-03-04T04:32:06;100057.47;;;-2.98;100.00
47738;BME280;33502;47.182;27.506;2023-03-04T04:34:33;100052.31;;;-2.96;100.00
47738;BME280;33502;47.182;27.506;2023-03-04T04:36:59;100050.59;;;-2.94;100.00
47738;BME280;33502;47.182;27.506;2023-03-04T04:39:25;100050.59;;;-2.89;100.00
47738;BME280;33502;47.182;27.506;2023-03-04T04:41:52;100051.47;;;-2.89;100.00
47738;BME280;33502;47.182;27.506;2023-03-04T04:44:17;100052.34;;;-2.87;100.00
47738;BME280;33502;47.182;27.506;2023-03-04T04:46:43;100060.97;;;-2.89;100.00
47738;BME280;33502;47.182;27.506;2023-03-04T04:49:09;100055.75;;;-2.96;100.00
47738;BME280;33502;47.182;27.506;2023-03-04T04:51:36;100053.25;;;-2.83;100.00
47738;BME280;33502;47.182;27.506;2023-03-04T04:54:03;100051.56;;;-2.77;100.00
47738;BME280;33502;47.182;27.506;2023-03-04T04:56:29;100065.44;;;-2.73;100.00
47738;BME280;33502;47.182;27.506;2023-03-04T04:58:57;100054.28;;;-2.60;100.00
47738;BME280;33502;47.182;27.506;2023-03-04T05:01:23;100058.66;;;-2.48;100.00
47738;BME280;33502;47.182;27.506;2023-03-04T05:03:50;100062.19;;;-2.37;100.00
47738;BME280;33502;47.182;27.506;2023-03-04T05:06:18;100055.34;;;-2.22;100.00
47738;BME280;33502;47.182;27.506;2023-03-04T05:08:47;100057.97;;;-2.13;100.00
47738;BME280;33502;47.182;27.506;2023-03-04T05:11:13;100052.81;;;-2.05;100.00
47738;BME280;33502;47.182;27.506;2023-03-04T05:13:39;100063.22;;;-1.99;100.00
47738;BME280;33502;47.182;27.506;2023-03-04T05:16:05;100059.78;;;-1.92;100.00
47738;BME280;33502;47.182;27.506;2023-03-04T05:18:31;100055.50;;;-1.81;100.00
47738;BME280;33502;47.182;27.506;2023-03-04T05:20:59;100055.56;;;-1.58;100.00
47738;BME280;33502;47.182;27.506;2023-03-04T05:23:27;100053.88;;;-1.32;100.00
47738;BME280;33502;47.182;27.506;2023-03-04T05:25:54;100054.78;;;-1.06;100.00
47738;BME280;33502;47.182;27.506;2023-03-04T05:28:20;100058.22;;;-0.51;100.00
47738;BME280;33502;47.182;27.506;2023-03-04T05:30:46;100054.44;;;0.30;100.00
47738;BME280;33502;47.182;27.506;2023-03-04T05:33:13;100054.09;;;0.82;100.00
47738;BME280;33502;47.182;27.506;2023-03-04T05:35:40;100047.63;;;1.34;100.00
47738;BME280;33502;47.182;27.506;2023-03-04T05:38:08;100053.22;;;1.77;100.00
47738;BME280;33502;47.182;27.506;2023-03-04T05:40:36;100047.63;;;2.11;100.00
47738;BME280;33502;47.182;27.506;2023-03-04T05:43:02;100051.09;;;2.77;100.00
47738;BME280;33502;47.182;27.506;2023-03-04T05:45:28;100050.81;;;3.45;100.00
47738;BME280;33502;47.182;27.506;2023-03-04T05:47:54;100039.19;;;4.05;100.00
47738;BME280;33502;47.182;27.506;2023-03-04T05:50:21;100041.34;;;4.67;100.00
47738;BME280;33502;47.182;27.506;2023-03-04T05:52:48;100041.19;;;5.09;100.00
47738;BME280;33502;47.182;27.506;2023-03-04T05:55:14;100046.38;;;5.80;99.89
47738;BME280;33502;47.182;27.506;2023-03-04T05:57:40;100034.38;;;6.62;96.89
47738;BME280;33502;47.182;27.506;2023-03-04T06:00:08;100041.91;;;7.28;88.34
47738;BME280;33502;47.182;27.506;2023-03-04T06:02:41;100036.25;;;7.89;83.92
47738;BME280;33502;47.182;27.506;2023-03-04T06:05:08;100034.97;;;8.24;80.27
47738;BME280;33502;47.182;27.506;2023-03-04T06:07:34;100032.91;;;8.32;74.61
47738;BME280;33502;47.182;27.506;2023-03-04T06:10:00;100030.94;;;8.61;74.66
47738;BME280;33502;47.182;27.506;2023-03-04T06:12:26;100030.84;;;8.64;71.42
47738;BME280;33502;47.182;27.506;2023-03-04T06:14:53;100026.63;;;8.80;70.95
47738;BME280;33502;47.182;27.506;2023-03-04T06:17:19;100023.94;;;9.25;69.48
47738;BME280;33502;47.182;27.506;2023-03-04T06:19:45;100024.78;;;9.05;67.37
47738;BME280;33502;47.182;27.506;2023-03-04T06:22:11;100017.31;;;9.36;67.22
47738;BME280;33502;47.182;27.506;2023-03-04T06:24:37;100021.94;;;9.52;66.28
47738;BME280;33502;47.182;27.506;2023-03-04T06:27:03;100013.06;;;9.73;64.61
47738;BME280;33502;47.182;27.506;2023-03-04T06:29:29;100017.38;;;9.35;63.90
47738;BME280;33502;47.182;27.506;2023-03-04T06:31:55;100013.63;;;9.40;65.85
47738;BME280;33502;47.182;27.506;2023-03-04T06:34:21;100015.06;;;9.48;65.14
47738;BME280;33502;47.182;27.506;2023-03-04T06:36:47;100010.56;;;9.50;65.45
47738;BME280;33502;47.182;27.506;2023-03-04T06:39:13;100013.53;;;9.63;64.78
47738;BME280;33502;47.182;27.506;2023-03-04T06:41:38;100008.59;;;9.94;63.49
47738;BME280;33502;47.182;27.506;2023-03-04T06:44:05;100004.28;;;10.31;63.69
47738;BME280;33502;47.182;27.506;2023-03-04T06:46:33;100014.28;;;10.82;60.68
47738;BME280;33502;47.182;27.506;2023-03-04T06:48:59;100007.81;;;10.87;59.05
47738;BME280;33502;47.182;27.506;2023-03-04T06:51:25;100000.47;;;10.75;59.17
47738;BME280;33502;47.182;27.506;2023-03-04T06:53:51;99999.91;;;10.68;58.86
47738;BME280;33502;47.182;27.506;2023-03-04T06:56:17;100000.16;;;10.98;59.27
47738;BME280;33502;47.182;27.506;2023-03-04T06:58:43;100002.69;;;11.71;57.11
47738;BME280;33502;47.182;27.506;2023-03-04T07:01:15;100003.66;;;12.36;54.69
47738;BME280;33502;47.182;27.506;2023-03-04T07:03:41;100000.66;;;12.42;54.47
47738;BME280;33502;47.182;27.506;2023-03-04T07:06:12;99999.28;;;12.66;53.70
47738;BME280;33502;47.182;27.506;2023-03-04T07:08:38;100003.25;;;12.27;53.72
47738;BME280;33502;47.182;27.506;2023-03-04T07:11:05;100007.91;;;11.90;55.45
47738;BME280;33502;47.182;27.506;2023-03-04T07:13:31;99992.31;;;11.49;56.12
47738;BME280;33502;47.182;27.506;2023-03-04T07:15:59;99994.66;;;11.21;57.68
47738;BME280;33502;47.182;27.506;2023-03-04T07:18:25;99991.06;;;11.04;59.06
47738;BME280;33502;47.182;27.506;2023-03-04T07:20:52;99993.75;;;11.22;58.96
47738;BME280;33502;47.182;27.506;2023-03-04T07:23:18;99980.28;;;11.60;58.50
47738;BME280;33502;47.182;27.506;2023-03-04T07:25:45;99983.78;;;12.11;57.27
47738;BME280;33502;47.182;27.506;2023-03-04T07:28:11;99977.38;;;12.79;55.76
47738;BME280;33502;47.182;27.506;2023-03-04T07:30:37;99972.66;;;13.44;53.66
47738;BME280;33502;47.182;27.506;2023-03-04T07:33:02;99974.84;;;13.22;53.25
47738;BME280;33502;47.182;27.506;2023-03-04T07:35:28;99969.25;;;13.57;53.44
47738;BME280;33502;47.182;27.506;2023-03-04T07:37:54;99971.53;;;13.77;52.58
47738;BME280;33502;47.182;27.506;2023-03-04T07:40:20;99960.03;;;14.05;52.45
47738;BME280;33502;47.182;27.506;2023-03-04T07:42:53;99958.63;;;14.83;50.61
47738;BME280;33502;47.182;27.506;2023-03-04T07:45:19;99961.13;;;15.52;47.82
47738;BME280;33502;47.182;27.506;2023-03-04T07:47:45;99964.06;;;15.34;47.50
47738;BME280;33502;47.182;27.506;2023-03-04T07:50:12;99952.69;;;15.96;47.92
47738;BME280;33502;47.182;27.506;2023-03-04T07:52:39;99945.34;;;16.85;44.65
47738;BME280;33502;47.182;27.506;2023-03-04T07:55:05;99942.63;;;16.37;44.09
47738;BME280;33502;47.182;27.506;2023-03-04T07:57:31;99949.56;;;16.02;44.54
47738;BME280;33502;47.182;27.506;2023-03-04T07:59:57;99940.97;;;15.86;45.27
47738;BME280;33502;47.182;27.506;2023-03-04T08:02:22;99941.44;;;16.41;44.09
47738;BME280;33502;47.182;27.506;2023-03-04T08:04:48;99942.16;;;16.19;43.53
47738;BME280;33502;47.182;27.506;2023-03-04T08:07:14;99940.06;;;16.11;43.57
47738;BME280;33502;47.182;27.506;2023-03-04T08:09:40;99936.53;;;16.48;43.28
47738;BME280;33502;47.182;27.506;2023-03-04T08:12:06;99930.22;;;17.44;41.93
47738;BME280;33502;47.182;27.506;2023-03-04T08:14:31;99934.00;;;17.52;40.88
47738;BME280;33502;47.182;27.506;2023-03-04T08:16:58;99929.47;;;17.30;41.26
47738;BME280;33502;47.182;27.506;2023-03-04T08:19:24;99927.78;;;17.29;41.51
47738;BME280;33502;47.182;27.506;2023-03-04T08:21:50;99920.88;;;17.72;40.04
47738;BME280;33502;47.182;27.506;2023-03-04T08:24:16;99920.75;;;17.73;40.42
47738;BME280;33502;47.182;27.506;2023-03-04T08:26:44;99919.06;;;18.06;38.53
47738;BME280;33502;47.182;27.506;2023-03-04T08:29:13;99912.97;;;18.15;38.64
47738;BME280;33502;47.182;27.506;2023-03-04T08:31:39;99911.56;;;19.29;37.47
47738;BME280;33502;47.182;27.506;2023-03-04T08:34:06;99910.47;;;18.46;37.04
47738;BME280;33502;47.182;27.506;2023-03-04T08:36:33;99900.94;;;18.10;38.14
47738;BME280;33502;47.182;27.506;2023-03-04T08:38:58;99889.09;;;17.67;38.50
47738;BME280;33502;47.182;27.506;2023-03-04T08:41:24;99903.34;;;16.98;39.70
47738;BME280;33502;47.182;27.506;2023-03-04T08:43:52;99892.25;;;15.82;41.31
47738;BME280;33502;47.182;27.506;2023-03-04T08:46:17;99899.19;;;15.21;42.65
47738;BME280;33502;47.182;27.506;2023-03-04T08:48:43;99889.72;;;14.64;43.30
47738;BME280;33502;47.182;27.506;2023-03-04T08:51:12;99892.34;;;14.91;43.60
47738;BME280;33502;47.182;27.506;2023-03-04T08:53:39;99879.88;;;15.30;42.64
47738;BME280;33502;47.182;27.506;2023-03-04T08:56:06;99888.84;;;15.29;42.63
47738;BME280;33502;47.182;27.506;2023-03-04T08:58:32;99885.03;;;14.80;43.28
47738;BME280;33502;47.182;27.506;2023-03-04T09:01:00;99875.94;;;14.16;44.28
47738;BME280;33502;47.182;27.506;2023-03-04T09:03:26;99873.19;;;14.17;45.40
47738;BME280;33502;47.182;27.506;2023-03-04T09:05:52;99869.84;;;13.86;45.42
47738;BME280;33502;47.182;27.506;2023-03-04T09:08:18;99870.81;;;13.28;45.97
47738;BME280;33502;47.182;27.506;2023-03-04T09:10:44;99859.94;;;13.02;47.25
47738;BME280;33502;47.182;27.506;2023-03-04T09:13:11;99859.03;;;13.46;47.35
47738;BME280;33502;47.182;27.506;2023-03-04T09:15:43;99852.94;;;13.73;45.76
47738;BME280;33502;47.182;27.506;2023-03-04T09:18:09;99848.00;;;13.52;45.36
47738;BME280;33502;47.182;27.506;2023-03-04T09:20:35;99841.41;;;13.87;45.56
47738;BME280;33502;47.182;27.506;2023-03-04T09:23:01;99834.16;;;13.47;46.31
47738;BME280;33502;47.182;27.506;2023-03-04T09:25:27;99831.19;;;13.09;46.76
47738;BME280;33502;47.182;27.506;2023-03-04T09:27:52;99831.06;;;12.96;47.20
47738;BME280;33502;47.182;27.506;2023-03-04T09:30:19;99829.56;;;13.06;47.15
47738;BME280;33502;47.182;27.506;2023-03-04T09:32:44;99817.59;;;13.71;46.53
47738;BME280;33502;47.182;27.506;2023-03-04T09:35:10;99817.31;;;14.30;44.59
47738;BME280;33502;47.182;27.506;2023-03-04T09:37:36;99810.41;;;14.40;44.71
47738;BME280;33502;47.182;27.506;2023-03-04T09:40:03;99806.78;;;14.68;43.68
47738;BME280;33502;47.182;27.506;2023-03-04T09:42:36;99808.34;;;14.18;43.53
47738;BME280;33502;47.182;27.506;2023-03-04T09:45:05;99801.22;;;14.59;45.49
47738;BME280;33502;47.182;27.506;2023-03-04T09:47:33;99795.59;;;14.76;42.73
47738;BME280;33502;47.182;27.506;2023-03-04T09:50:01;99790.28;;;15.27;43.08
47738;BME280;33502;47.182;27.506;2023-03-04T10:05:16;99762.16;;;15.47;40.53
47738;BME280;33502;47.182;27.506;2023-03-04T10:07:45;99758.16;;;15.66;41.23
47738;BME280;33502;47.182;27.506;2023-03-04T10:10:14;99748.97;;;15.70;41.19
47738;BME280;33502;47.182;27.506;2023-03-04T10:12:42;99748.88;;;15.35;39.72
47738;BME280;33502;47.182;27.506;2023-03-04T10:15:17;99734.06;;;15.18;40.54
47738;BME280;33502;47.182;27.506;2023-03-04T10:17:47;99734.16;;;15.29;41.79
47738;BME280;33502;47.182;27.506;2023-03-04T10:22:50;99732.25;;;15.18;41.59
47738;BME280;33502;47.182;27.506;2023-03-04T10:27:42;99720.63;;;15.19;41.45
47738;BME280;33502;47.182;27.506;2023-03-04T10:32:50;99713.34;;;15.58;39.51
47738;BME280;33502;47.182;27.506;2023-03-04T10:35:16;99703.56;;;15.83;40.07
47738;BME280;33502;47.182;27.506;2023-03-04T10:37:45;99700.78;;;15.47;40.02
47738;BME280;33502;47.182;27.506;2023-03-04T10:40:20;99691.97;;;15.95;40.15
47738;BME280;33502;47.182;27.506;2023-03-04T10:42:48;99688.59;;;16.04;39.44
47738;BME280;33502;47.182;27.506;2023-03-04T10:45:47;99693.41;;;15.51;39.67
47738;BME280;33502;47.182;27.506;2023-03-04T10:48:05;99682.84;;;15.87;39.29
47738;BME280;33502;47.182;27.506;2023-03-04T10:50:31;99685.19;;;16.02;39.96
47738;BME280;33502;47.182;27.506;2023-03-04T10:52:57;99674.63;;;16.01;38.72
47738;BME280;33502;47.182;27.506;2023-03-04T10:57:50;99663.25;;;16.68;38.40
47738;BME280;33502;47.182;27.506;2023-03-04T11:02:43;99653.59;;;16.43;37.80
47738;BME280;33502;47.182;27.506;2023-03-04T11:05:20;99652.66;;;15.97;38.90
47738;BME280;33502;47.182;27.506;2023-03-04T11:07:50;99649.22;;;15.84;38.91
47738;BME280;33502;47.182;27.506;2023-03-04T11:12:42;99642.19;;;16.52;36.47
47738;BME280;33502;47.182;27.506;2023-03-04T11:15:19;99627.47;;;17.26;36.22
47738;BME280;33502;47.182;27.506;2023-03-04T11:17:49;99610.22;;;17.83;36.18
47738;BME280;33502;47.182;27.506;2023-03-04T11:20:33;99626.34;;;17.72;34.61
47738;BME280;33502;47.182;27.506;2023-03-04T11:23:08;99615.47;;;16.75;35.71
47738;BME280;33502;47.182;27.506;2023-03-04T11:25:37;99603.22;;;16.61;36.88
47738;BME280;33502;47.182;27.506;2023-03-04T11:28:18;99607.09;;;17.46;36.01
47738;BME280;33502;47.182;27.506;2023-03-04T11:30:51;99593.97;;;17.10;35.47
47738;BME280;33502;47.182;27.506;2023-03-04T11:33:24;99598.84;;;16.82;35.75
47738;BME280;33502;47.182;27.506;2023-03-04T11:38:45;99587.19;;;17.59;34.65
47738;BME280;33502;47.182;27.506;2023-03-04T11:41:13;99577.22;;;17.83;34.72
47738;BME280;33502;47.182;27.506;2023-03-04T11:43:41;99573.72;;;18.03;34.09
47738;BME280;33502;47.182;27.506;2023-03-04T11:46:25;99569.16;;;18.46;34.19
47738;BME280;33502;47.182;27.506;2023-03-04T11:54:02;99556.69;;;17.30;34.31
47738;BME280;33502;47.182;27.506;2023-03-04T11:56:36;99559.06;;;17.00;35.09
47738;BME280;33502;47.182;27.506;2023-03-04T12:04:39;99530.84;;;17.08;35.65
47738;BME280;33502;47.182;27.506;2023-03-04T12:14:49;99521.53;;;17.76;34.43
47738;BME280;33502;47.182;27.506;2023-03-04T12:30:45;99503.19;;;18.24;31.58
47738;BME280;33502;47.182;27.506;2023-03-04T12:35:41;99511.38;;;17.91;30.09
47738;BME280;33502;47.182;27.506;2023-03-04T12:38:56;99498.38;;;17.87;30.66
47738;BME280;33502;47.182;27.506;2023-03-04T12:43:27;99487.69;;;18.68;29.91
47738;BME280;33502;47.182;27.506;2023-03-04T12:48:41;99480.91;;;18.73;29.52
47738;BME280;33502;47.182;27.506;2023-03-04T12:51:16;99482.59;;;18.24;29.31
47738;BME280;33502;47.182;27.506;2023-03-04T12:56:15;99468.78;;;18.69;29.75
47738;BME280;33502;47.182;27.506;2023-03-04T12:58:41;99463.53;;;18.68;29.80
47738;BME280;33502;47.182;27.506;2023-03-04T13:01:13;99462.16;;;18.73;29.74
47738;BME280;33502;47.182;27.506;2023-03-04T13:06:33;99454.66;;;18.67;28.77
47738;BME280;33502;47.182;27.506;2023-03-04T13:11:41;99440.66;;;18.44;29.47
47738;BME280;33502;47.182;27.506;2023-03-04T13:15:36;99431.50;;;18.76;29.39
47738;BME280;33502;47.182;27.506;2023-03-04T13:20:35;99417.69;;;18.71;29.88
47738;BME280;33502;47.182;27.506;2023-03-04T13:25:41;99416.66;;;18.43;31.77
47738;BME280;33502;47.182;27.506;2023-03-04T13:35:47;99399.63;;;17.72;32.07
47738;BME280;33502;47.182;27.506;2023-03-04T13:46:47;99388.91;;;18.53;31.69
47738;BME280;33502;47.182;27.506;2023-03-04T13:51:29;99376.06;;;17.97;32.22
47738;BME280;33502;47.182;27.506;2023-03-04T14:04:12;99364.16;;;17.49;34.01
47738;BME280;33502;47.182;27.506;2023-03-04T14:06:42;99366.78;;;17.39;33.61
47738;BME280;33502;47.182;27.506;2023-03-04T14:09:12;99354.09;;;16.78;34.49
47738;BME280;33502;47.182;27.506;2023-03-04T14:11:38;99354.75;;;16.71;34.61
47738;BME280;33502;47.182;27.506;2023-03-04T14:14:09;99352.22;;;16.58;35.55
47738;BME280;33502;47.182;27.506;2023-03-04T14:16:39;99346.66;;;16.93;35.13
47738;BME280;33502;47.182;27.506;2023-03-04T14:19:14;99349.19;;;16.95;35.08
47738;BME280;33502;47.182;27.506;2023-03-04T14:21:43;99346.81;;;17.01;35.47
47738;BME280;33502;47.182;27.506;2023-03-04T14:24:16;99343.16;;;16.81;35.57
47738;BME280;33502;47.182;27.506;2023-03-04T14:26:42;99336.94;;;16.81;36.19
47738;BME280;33502;47.182;27.506;2023-03-04T14:31:52;99340.19;;;16.63;36.20
47738;BME280;33502;47.182;27.506;2023-03-04T14:36:50;99342.78;;;16.10;36.90
47738;BME280;33502;47.182;27.506;2023-03-04T14:39:16;99327.25;;;16.15;37.48
47738;BME280;33502;47.182;27.506;2023-03-04T14:41:43;99320.19;;;16.14;37.20
47738;BME280;33502;47.182;27.506;2023-03-04T14:46:45;99325.84;;;15.89;37.56
47738;BME280;33502;47.182;27.506;2023-03-04T14:49:12;99328.16;;;15.59;38.47
47738;BME280;33502;47.182;27.506;2023-03-04T14:54:06;99325.44;;;15.03;38.25